La Vernia, Texas
Current Conditions -  °F | °C
As of 3:58 AM on Friday 24 Oct 2014 (Local Time) from KRND Reporting Station
Clear Clear  
Wind Chill: 60°   Ceiling: Unl
Heat Index: 60°   Visibility: 10mi
Dew Point: 56°   Wind: 5mph
Humidity: 84%   Direction: 340°NNW
Pressure: 30.13"   Gusts: NA
Location:  29.36°N, 98.12°W
Report Text: KRND 240858Z AUTO 34004KT 10SM CLR 16/13 A3013 RMK AO2 SLP197 T01580131 50002 $
Loading
Personal Weather Stations






























Interactive Weather Map
Tropical Storm Tracking
New forecast layout! Learn more

10-Day Weather Forecast

Advertisements
Track Severe Weather on mobile